Sun Universe — 3FOQ4 — position and weather

sailwx.info

Track history (hours):
 
Tides and Currents Weather Stations Pressure Air Temp Water Temp Dewpoint Dewpoint Depression Visibility Wind Speed Wind Dir Waves Ship Positions

Sun Universe

Last reported at 2014-Nov-18 14:21 UTC. Time now 2014-Nov-23 17:14 UTC.
Position N 33°56' E 130°24'.

Length 116 m; draft 5.2 m.

Type: Cargo ship. MMSI: 371647000.

Date/timePositionNaut miles runAvg speedWind from/ knotsBaromVisibWave heightAir tempDewpointWater temp
2014-Nov-18 14:21N 33°56' E 130°24'1314.1
2014-Nov-18 13:27N 33°50' E 130°11'1314.2
2014-Nov-18 12:33N 33°43' E 129°58'43013.0
2014-Nov-17 03:24N 30°04' E 122°42'1011.9
2014-Nov-17 02:33N 29°55' E 122°37'1111.3
2014-Nov-17 01:33N 29°45' E 122°31'1212.1
2014-Nov-17 00:33N 29°34' E 122°24'31411.5
2014-Nov-15 21:10N 25°03' E 119°27'911.7
2014-Nov-15 20:24N 24°58' E 119°19'1112.6
2014-Nov-15 19:33N 24°51' E 119°10'1313.0
2014-Nov-15 18:33N 24°42' E 118°59'1413.1
2014-Nov-15 17:30N 24°33' E 118°48'1212.8
2014-Nov-15 16:33N 24°25' E 118°38'1313.0
2014-Nov-15 15:31N 24°16' E 118°27'1212.5
2014-Nov-15 14:33N 24°08' E 118°17'1412.1
2014-Nov-15 13:25N 23°59' E 118°06'1011.5
2014-Nov-15 12:32N 23°52' E 117°58'1111.2
2014-Nov-15 11:32N 23°44' E 117°49'1111.4
2014-Nov-15 10:33N 23°37' E 117°40'3712.0
2014-Nov-15 07:27N 23°12' E 117°09'1112.3
2014-Nov-15 06:33N 23°07' E 116°59'1212.0
2014-Nov-15 05:33N 23°01' E 116°47'1211.8
2014-Nov-15 04:32N 22°54' E 116°36'14711.3
2014-Nov-14 15:30N 22°02' E 114°07'1212.7
2014-Nov-14 14:32N 22°01' E 113°54'2110.5
2014-Nov-14 12:33N 22°21' E 113°47'20 0.6
2014-Nov-13 02:27N 22°40' E 113°40'8 9.3
2014-Nov-13 01:33N 22°33' E 113°44'1010.3
2014-Nov-13 00:33N 22°23' E 113°47'1110.5
2014-Nov-12 23:33N 22°12' E 113°48'7 7.0
2014-Nov-12 22:33N 22°05' E 113°46'3 2.6
2014-Nov-12 21:29N 22°03' E 113°44'0 0.0
2014-Nov-12 20:11N 22°03' E 113°44'0 0.0
2014-Nov-12 19:29N 22°03' E 113°44'0 0.0
2014-Nov-12 18:29N 22°03' E 113°44'0 0.0
2014-Nov-12 17:29N 22°03' E 113°44'0 0.0
2014-Nov-12 16:11N 22°03' E 113°44'0 0.1
2014-Nov-12 15:17N 22°03' E 113°44'0 0.0
2014-Nov-12 14:05N 22°03' E 113°44'0 0.0
2014-Nov-12 13:17N 22°03' E 113°44'0 0.0
2014-Nov-12 11:29N 22°03' E 113°44'0 0.0
2014-Nov-12 10:23N 22°03' E 113°44'0 0.0
2014-Nov-12 09:23N 22°03' E 113°44'0 0.0
2014-Nov-12 08:29N 22°03' E 113°44'0 0.0
2014-Nov-12 07:29N 22°03' E 113°44'0 0.0
2014-Nov-12 06:29N 22°03' E 113°44'0 0.0
2014-Nov-12 05:29N 22°03' E 113°44'0 0.0
2014-Nov-12 04:29N 22°03' E 113°44'0 0.0
2014-Nov-12 03:17N 22°03' E 113°44'0 0.0
2014-Nov-12 02:29N 22°03' E 113°44'0 0.0
2014-Nov-12 01:29N 22°03' E 113°44'0 0.2
2014-Nov-12 00:33N 22°03' E 113°44'8 7.3
2014-Nov-11 23:32N 22°01' E 113°52'24412.9
2014-Nov-11 04:32N 23°40' E 117°54'1312.1
2014-Nov-11 03:29N 23°48' E 118°05'1112.0
2014-Nov-11 02:33N 23°56' E 118°14'1212.1
2014-Nov-11 01:32N 24°04' E 118°24'2512.6
2014-Nov-10 23:33N 24°20' E 118°44'3013.5
2014-Nov-10 21:20N 24°40' E 119°09'  
Track history (hours):
 
Tides and Currents Weather Stations Pressure Air Temp Water Temp Dewpoint Dewpoint Depression Visibility Wind Speed Wind Dir Waves Ship Positions

Sun Universe

Last reported at 2014-Nov-18 14:21 UTC. Time now 2014-Nov-23 17:14 UTC.
Position N 33°56' E 130°24'.

Length 116 m; draft 5.2 m.

Type: Cargo ship. MMSI: 371647000.

Date/timePositionNaut miles runAvg speedWind from/ knotsBaromVisibWave heightAir tempDewpointWater temp
2014-Nov-18 14:21N 33°56' E 130°24'1314.1
2014-Nov-18 13:27N 33°50' E 130°11'1314.2
2014-Nov-18 12:33N 33°43' E 129°58'43013.0
2014-Nov-17 03:24N 30°04' E 122°42'1011.9
2014-Nov-17 02:33N 29°55' E 122°37'1111.3
2014-Nov-17 01:33N 29°45' E 122°31'1212.1
2014-Nov-17 00:33N 29°34' E 122°24'31411.5
2014-Nov-15 21:10N 25°03' E 119°27'911.7
2014-Nov-15 20:24N 24°58' E 119°19'1112.6
2014-Nov-15 19:33N 24°51' E 119°10'1313.0
2014-Nov-15 18:33N 24°42' E 118°59'1413.1
2014-Nov-15 17:30N 24°33' E 118°48'1212.8
2014-Nov-15 16:33N 24°25' E 118°38'1313.0
2014-Nov-15 15:31N 24°16' E 118°27'1212.5
2014-Nov-15 14:33N 24°08' E 118°17'1412.1
2014-Nov-15 13:25N 23°59' E 118°06'1011.5
2014-Nov-15 12:32N 23°52' E 117°58'1111.2
2014-Nov-15 11:32N 23°44' E 117°49'1111.4
2014-Nov-15 10:33N 23°37' E 117°40'3712.0
2014-Nov-15 07:27N 23°12' E 117°09'1112.3
2014-Nov-15 06:33N 23°07' E 116°59'1212.0
2014-Nov-15 05:33N 23°01' E 116°47'1211.8
2014-Nov-15 04:32N 22°54' E 116°36'14711.3
2014-Nov-14 15:30N 22°02' E 114°07'1212.7
2014-Nov-14 14:32N 22°01' E 113°54'2110.5
2014-Nov-14 12:33N 22°21' E 113°47'20 0.6
2014-Nov-13 02:27N 22°40' E 113°40'8 9.3
2014-Nov-13 01:33N 22°33' E 113°44'1010.3
2014-Nov-13 00:33N 22°23' E 113°47'1110.5
2014-Nov-12 23:33N 22°12' E 113°48'7 7.0
2014-Nov-12 22:33N 22°05' E 113°46'3 2.6
2014-Nov-12 21:29N 22°03' E 113°44'0 0.0
2014-Nov-12 20:11N 22°03' E 113°44'0 0.0
2014-Nov-12 19:29N 22°03' E 113°44'0 0.0
2014-Nov-12 18:29N 22°03' E 113°44'0 0.0
2014-Nov-12 17:29N 22°03' E 113°44'0 0.0
2014-Nov-12 16:11N 22°03' E 113°44'0 0.1
2014-Nov-12 15:17N 22°03' E 113°44'0 0.0
2014-Nov-12 14:05N 22°03' E 113°44'0 0.0
2014-Nov-12 13:17N 22°03' E 113°44'0 0.0
2014-Nov-12 11:29N 22°03' E 113°44'0 0.0
2014-Nov-12 10:23N 22°03' E 113°44'0 0.0
2014-Nov-12 09:23N 22°03' E 113°44'0 0.0
2014-Nov-12 08:29N 22°03' E 113°44'0 0.0
2014-Nov-12 07:29N 22°03' E 113°44'0 0.0
2014-Nov-12 06:29N 22°03' E 113°44'0 0.0
2014-Nov-12 05:29N 22°03' E 113°44'0 0.0
2014-Nov-12 04:29N 22°03' E 113°44'0 0.0
2014-Nov-12 03:17N 22°03' E 113°44'0 0.0
2014-Nov-12 02:29N 22°03' E 113°44'0 0.0
2014-Nov-12 01:29N 22°03' E 113°44'0 0.2
2014-Nov-12 00:33N 22°03' E 113°44'8 7.3
2014-Nov-11 23:32N 22°01' E 113°52'24412.9
2014-Nov-11 04:32N 23°40' E 117°54'1312.1
2014-Nov-11 03:29N 23°48' E 118°05'1112.0
2014-Nov-11 02:33N 23°56' E 118°14'1212.1
2014-Nov-11 01:32N 24°04' E 118°24'2512.6
2014-Nov-10 23:33N 24°20' E 118°44'3013.5
2014-Nov-10 21:20N 24°40' E 119°09'  

Dump ship's entire track history